sensor_id;sensor_type;location;lat;lon;timestamp;P1;durP1;ratioP1;P2;durP2;ratioP2
4634;SDS011;2330;48.158;11.816;2023-04-03T00:01:49;11.10;;;7.65;;
4634;SDS011;2330;48.158;11.816;2023-04-03T00:04:16;7.65;;;7.15;;
4634;SDS011;2330;48.158;11.816;2023-04-03T00:06:43;7.88;;;7.20;;
4634;SDS011;2330;48.158;11.816;2023-04-03T00:09:10;7.30;;;6.90;;
4634;SDS011;2330;48.158;11.816;2023-04-03T00:11:37;8.18;;;7.68;;
4634;SDS011;2330;48.158;11.816;2023-04-03T00:14:03;7.18;;;6.72;;
4634;SDS011;2330;48.158;11.816;2023-04-03T00:16:30;7.25;;;6.75;;
4634;SDS011;2330;48.158;11.816;2023-04-03T00:18:57;7.20;;;6.70;;
4634;SDS011;2330;48.158;11.816;2023-04-03T00:21:24;7.88;;;7.22;;
4634;SDS011;2330;48.158;11.816;2023-04-03T00:23:50;8.15;;;7.55;;
4634;SDS011;2330;48.158;11.816;2023-04-03T00:26:17;7.90;;;7.30;;
4634;SDS011;2330;48.158;11.816;2023-04-03T00:28:44;7.70;;;7.20;;
4634;SDS011;2330;48.158;11.816;2023-04-03T00:31:13;8.05;;;7.35;;
4634;SDS011;2330;48.158;11.816;2023-04-03T00:33:41;7.65;;;7.15;;
4634;SDS011;2330;48.158;11.816;2023-04-03T00:36:08;8.15;;;7.45;;
4634;SDS011;2330;48.158;11.816;2023-04-03T00:38:36;7.50;;;6.95;;
4634;SDS011;2330;48.158;11.816;2023-04-03T00:41:03;6.55;;;6.15;;
4634;SDS011;2330;48.158;11.816;2023-04-03T00:43:30;7.57;;;7.07;;
4634;SDS011;2330;48.158;11.816;2023-04-03T00:45:58;7.47;;;6.88;;
4634;SDS011;2330;48.158;11.816;2023-04-03T00:48:36;7.35;;;6.80;;
4634;SDS011;2330;48.158;11.816;2023-04-03T00:51:07;7.70;;;7.20;;
4634;SDS011;2330;48.158;11.816;2023-04-03T00:53:39;7.63;;;7.03;;
4634;SDS011;2330;48.158;11.816;2023-04-03T00:56:13;7.70;;;6.90;;
4634;SDS011;2330;48.158;11.816;2023-04-03T00:58:45;7.97;;;7.38;;
4634;SDS011;2330;48.158;11.816;2023-04-03T01:01:17;7.03;;;6.63;;
4634;SDS011;2330;48.158;11.816;2023-04-03T01:03:47;6.70;;;6.28;;
4634;SDS011;2330;48.158;11.816;2023-04-03T01:06:15;6.93;;;6.50;;
4634;SDS011;2330;48.158;11.816;2023-04-03T01:08:44;6.93;;;6.53;;
4634;SDS011;2330;48.158;11.816;2023-04-03T01:11:14;7.82;;;7.05;;
4634;SDS011;2330;48.158;11.816;2023-04-03T01:13:41;7.40;;;6.90;;
4634;SDS011;2330;48.158;11.816;2023-04-03T01:16:08;7.18;;;6.57;;
4634;SDS011;2330;48.158;11.816;2023-04-03T01:18:36;7.15;;;6.65;;
4634;SDS011;2330;48.158;11.816;2023-04-03T01:26:33;7.10;;;6.50;;
4634;SDS011;2330;48.158;11.816;2023-04-03T01:29:02;7.25;;;6.75;;
4634;SDS011;2330;48.158;11.816;2023-04-03T01:31:32;7.05;;;6.35;;
4634;SDS011;2330;48.158;11.816;2023-04-03T01:34:01;6.93;;;6.38;;
4634;SDS011;2330;48.158;11.816;2023-04-03T01:36:29;6.65;;;6.15;;
4634;SDS011;2330;48.158;11.816;2023-04-03T01:38:58;7.85;;;7.25;;
4634;SDS011;2330;48.158;11.816;2023-04-03T01:41:26;6.55;;;6.05;;
4634;SDS011;2330;48.158;11.816;2023-04-03T01:43:53;6.68;;;6.28;;
4634;SDS011;2330;48.158;11.816;2023-04-03T01:46:21;9.20;;;6.78;;
4634;SDS011;2330;48.158;11.816;2023-04-03T01:48:48;7.25;;;6.65;;
4634;SDS011;2330;48.158;11.816;2023-04-03T01:51:15;6.65;;;6.25;;
4634;SDS011;2330;48.158;11.816;2023-04-03T01:53:42;6.70;;;6.15;;
4634;SDS011;2330;48.158;11.816;2023-04-03T01:56:09;7.07;;;6.57;;
4634;SDS011;2330;48.158;11.816;2023-04-03T01:58:36;7.35;;;6.80;;
4634;SDS011;2330;48.158;11.816;2023-04-03T02:01:03;9.30;;;6.88;;
4634;SDS011;2330;48.158;11.816;2023-04-03T02:03:30;6.57;;;6.10;;
4634;SDS011;2330;48.158;11.816;2023-04-03T02:05:57;6.72;;;6.13;;
4634;SDS011;2330;48.158;11.816;2023-04-03T02:08:24;6.05;;;5.65;;
4634;SDS011;2330;48.158;11.816;2023-04-03T02:10:51;6.78;;;6.28;;
4634;SDS011;2330;48.158;11.816;2023-04-03T02:13:18;5.95;;;5.55;;
4634;SDS011;2330;48.158;11.816;2023-04-03T02:15:45;6.07;;;5.57;;
4634;SDS011;2330;48.158;11.816;2023-04-03T02:18:14;5.68;;;5.28;;
4634;SDS011;2330;48.158;11.816;2023-04-03T02:20:42;5.75;;;5.30;;
4634;SDS011;2330;48.158;11.816;2023-04-03T02:23:09;5.20;;;4.90;;
4634;SDS011;2330;48.158;11.816;2023-04-03T02:25:36;5.00;;;4.60;;
4634;SDS011;2330;48.158;11.816;2023-04-03T02:28:04;5.15;;;4.85;;
4634;SDS011;2330;48.158;11.816;2023-04-03T02:30:31;5.35;;;4.97;;
4634;SDS011;2330;48.158;11.816;2023-04-03T02:32:58;6.05;;;5.65;;
4634;SDS011;2330;48.158;11.816;2023-04-03T02:35:25;6.25;;;5.75;;
4634;SDS011;2330;48.158;11.816;2023-04-03T02:37:52;4.90;;;4.60;;
4634;SDS011;2330;48.158;11.816;2023-04-03T02:40:19;4.90;;;4.60;;
4634;SDS011;2330;48.158;11.816;2023-04-03T02:42:45;5.57;;;5.18;;
4634;SDS011;2330;48.158;11.816;2023-04-03T02:45:12;5.22;;;4.93;;
4634;SDS011;2330;48.158;11.816;2023-04-03T02:47:39;5.10;;;4.70;;
4634;SDS011;2330;48.158;11.816;2023-04-03T02:50:06;5.30;;;4.90;;
4634;SDS011;2330;48.158;11.816;2023-04-03T02:52:33;5.18;;;4.80;;
4634;SDS011;2330;48.158;11.816;2023-04-03T02:55:00;4.90;;;4.60;;
4634;SDS011;2330;48.158;11.816;2023-04-03T02:57:27;5.40;;;5.10;;
4634;SDS011;2330;48.158;11.816;2023-04-03T02:59:53;5.55;;;5.15;;
4634;SDS011;2330;48.158;11.816;2023-04-03T03:02:20;5.15;;;4.85;;
4634;SDS011;2330;48.158;11.816;2023-04-03T03:04:47;5.10;;;4.80;;
4634;SDS011;2330;48.158;11.816;2023-04-03T03:07:14;5.47;;;4.97;;
4634;SDS011;2330;48.158;11.816;2023-04-03T03:09:40;5.40;;;4.95;;
4634;SDS011;2330;48.158;11.816;2023-04-03T03:12:07;5.20;;;4.85;;
4634;SDS011;2330;48.158;11.816;2023-04-03T03:14:34;4.50;;;4.20;;
4634;SDS011;2330;48.158;11.816;2023-04-03T03:17:01;4.65;;;4.35;;
4634;SDS011;2330;48.158;11.816;2023-04-03T03:19:27;5.28;;;4.88;;
4634;SDS011;2330;48.158;11.816;2023-04-03T03:21:54;5.13;;;4.72;;
4634;SDS011;2330;48.158;11.816;2023-04-03T03:24:21;4.35;;;4.05;;
4634;SDS011;2330;48.158;11.816;2023-04-03T03:26:47;4.60;;;4.30;;
4634;SDS011;2330;48.158;11.816;2023-04-03T03:29:14;4.35;;;4.05;;
4634;SDS011;2330;48.158;11.816;2023-04-03T03:31:41;3.67;;;3.47;;
4634;SDS011;2330;48.158;11.816;2023-04-03T03:34:08;4.50;;;4.20;;
4634;SDS011;2330;48.158;11.816;2023-04-03T03:36:35;4.72;;;4.43;;
4634;SDS011;2330;48.158;11.816;2023-04-03T03:39:02;4.93;;;4.53;;
4634;SDS011;2330;48.158;11.816;2023-04-03T03:41:28;4.10;;;3.90;;
4634;SDS011;2330;48.158;11.816;2023-04-03T03:43:55;5.53;;;4.22;;
4634;SDS011;2330;48.158;11.816;2023-04-03T03:46:22;4.00;;;3.70;;
4634;SDS011;2330;48.158;11.816;2023-04-03T03:48:49;3.90;;;3.63;;
4634;SDS011;2330;48.158;11.816;2023-04-03T03:51:16;4.10;;;3.90;;
4634;SDS011;2330;48.158;11.816;2023-04-03T03:53:43;3.65;;;3.35;;
4634;SDS011;2330;48.158;11.816;2023-04-03T03:56:09;3.70;;;3.50;;
4634;SDS011;2330;48.158;11.816;2023-04-03T03:58:36;3.70;;;3.50;;
4634;SDS011;2330;48.158;11.816;2023-04-03T04:01:03;3.80;;;3.53;;
4634;SDS011;2330;48.158;11.816;2023-04-03T04:03:32;4.05;;;3.85;;
4634;SDS011;2330;48.158;11.816;2023-04-03T04:05:59;3.95;;;3.75;;
4634;SDS011;2330;48.158;11.816;2023-04-03T04:08:26;4.65;;;4.35;;
4634;SDS011;2330;48.158;11.816;2023-04-03T04:10:53;4.03;;;3.67;;
4634;SDS011;2330;48.158;11.816;2023-04-03T04:13:20;4.20;;;3.90;;
4634;SDS011;2330;48.158;11.816;2023-04-03T04:15:47;4.03;;;3.83;;
4634;SDS011;2330;48.158;11.816;2023-04-03T04:18:14;3.95;;;3.75;;
4634;SDS011;2330;48.158;11.816;2023-04-03T04:20:41;4.07;;;3.78;;
4634;SDS011;2330;48.158;11.816;2023-04-03T04:23:07;4.05;;;3.85;;
4634;SDS011;2330;48.158;11.816;2023-04-03T04:25:34;3.72;;;3.42;;
4634;SDS011;2330;48.158;11.816;2023-04-03T04:28:01;4.20;;;3.90;;
4634;SDS011;2330;48.158;11.816;2023-04-03T04:30:28;4.03;;;3.80;;
4634;SDS011;2330;48.158;11.816;2023-04-03T04:32:55;4.32;;;4.00;;
4634;SDS011;2330;48.158;11.816;2023-04-03T04:35:22;4.00;;;3.70;;
4634;SDS011;2330;48.158;11.816;2023-04-03T04:37:48;4.60;;;4.03;;
4634;SDS011;2330;48.158;11.816;2023-04-03T04:40:16;3.97;;;3.78;;
4634;SDS011;2330;48.158;11.816;2023-04-03T04:42:43;3.88;;;3.67;;
4634;SDS011;2330;48.158;11.816;2023-04-03T04:45:10;4.47;;;4.18;;
4634;SDS011;2330;48.158;11.816;2023-04-03T04:47:37;4.30;;;4.10;;
4634;SDS011;2330;48.158;11.816;2023-04-03T04:50:04;4.28;;;4.07;;
4634;SDS011;2330;48.158;11.816;2023-04-03T04:52:31;3.58;;;3.38;;
4634;SDS011;2330;48.158;11.816;2023-04-03T04:54:58;4.38;;;4.07;;
4634;SDS011;2330;48.158;11.816;2023-04-03T04:57:25;4.45;;;4.10;;
4634;SDS011;2330;48.158;11.816;2023-04-03T04:59:52;4.30;;;3.88;;
4634;SDS011;2330;48.158;11.816;2023-04-03T05:02:19;4.57;;;4.28;;
4634;SDS011;2330;48.158;11.816;2023-04-03T05:04:46;4.03;;;3.72;;
4634;SDS011;2330;48.158;11.816;2023-04-03T05:07:12;4.32;;;4.03;;
4634;SDS011;2330;48.158;11.816;2023-04-03T05:09:41;4.03;;;3.72;;
4634;SDS011;2330;48.158;11.816;2023-04-03T05:12:08;4.03;;;3.75;;
4634;SDS011;2330;48.158;11.816;2023-04-03T05:14:35;3.90;;;3.60;;
4634;SDS011;2330;48.158;11.816;2023-04-03T05:17:02;4.22;;;3.92;;
4634;SDS011;2330;48.158;11.816;2023-04-03T05:19:29;3.60;;;3.30;;
4634;SDS011;2330;48.158;11.816;2023-04-03T05:21:55;4.35;;;4.00;;
4634;SDS011;2330;48.158;11.816;2023-04-03T05:24:25;3.75;;;3.55;;
4634;SDS011;2330;48.158;11.816;2023-04-03T05:26:52;3.30;;;3.10;;
4634;SDS011;2330;48.158;11.816;2023-04-03T05:29:19;4.60;;;4.30;;
4634;SDS011;2330;48.158;11.816;2023-04-03T05:31:49;3.85;;;3.55;;
4634;SDS011;2330;48.158;11.816;2023-04-03T05:34:16;4.30;;;3.40;;
4634;SDS011;2330;48.158;11.816;2023-04-03T05:36:43;3.63;;;3.42;;
4634;SDS011;2330;48.158;11.816;2023-04-03T05:39:10;3.38;;;3.17;;
4634;SDS011;2330;48.158;11.816;2023-04-03T05:41:37;4.03;;;3.72;;
4634;SDS011;2330;48.158;11.816;2023-04-03T05:44:04;3.72;;;3.50;;
4634;SDS011;2330;48.158;11.816;2023-04-03T05:46:31;3.55;;;3.35;;
4634;SDS011;2330;48.158;11.816;2023-04-03T05:48:58;3.65;;;3.40;;
4634;SDS011;2330;48.158;11.816;2023-04-03T05:51:25;4.10;;;3.75;;
4634;SDS011;2330;48.158;11.816;2023-04-03T05:54:00;3.58;;;3.38;;
4634;SDS011;2330;48.158;11.816;2023-04-03T05:56:35;3.63;;;3.42;;
4634;SDS011;2330;48.158;11.816;2023-04-03T05:59:02;3.65;;;3.35;;
4634;SDS011;2330;48.158;11.816;2023-04-03T06:01:28;4.03;;;3.60;;
4634;SDS011;2330;48.158;11.816;2023-04-03T06:03:55;3.58;;;3.38;;
4634;SDS011;2330;48.158;11.816;2023-04-03T06:06:24;3.53;;;3.33;;
4634;SDS011;2330;48.158;11.816;2023-04-03T06:08:51;3.05;;;2.95;;
4634;SDS011;2330;48.158;11.816;2023-04-03T06:11:18;3.80;;;3.50;;
4634;SDS011;2330;48.158;11.816;2023-04-03T06:13:45;3.40;;;3.20;;
4634;SDS011;2330;48.158;11.816;2023-04-03T06:16:12;3.10;;;2.90;;
4634;SDS011;2330;48.158;11.816;2023-04-03T06:18:41;3.67;;;3.38;;
4634;SDS011;2330;48.158;11.816;2023-04-03T06:21:08;3.30;;;3.03;;
4634;SDS011;2330;48.158;11.816;2023-04-03T06:23:35;4.22;;;3.40;;
4634;SDS011;2330;48.158;11.816;2023-04-03T06:26:02;3.25;;;3.05;;
4634;SDS011;2330;48.158;11.816;2023-04-03T06:28:29;3.58;;;3.38;;
4634;SDS011;2330;48.158;11.816;2023-04-03T06:30:56;4.32;;;3.92;;
4634;SDS011;2330;48.158;11.816;2023-04-03T06:33:22;3.92;;;3.67;;
4634;SDS011;2330;48.158;11.816;2023-04-03T06:35:49;3.50;;;3.30;;
4634;SDS011;2330;48.158;11.816;2023-04-03T06:38:21;3.95;;;3.65;;
4634;SDS011;2330;48.158;11.816;2023-04-03T06:40:48;3.75;;;3.55;;
4634;SDS011;2330;48.158;11.816;2023-04-03T06:43:15;3.67;;;3.47;;
4634;SDS011;2330;48.158;11.816;2023-04-03T06:45:42;4.13;;;3.83;;
4634;SDS011;2330;48.158;11.816;2023-04-03T06:48:08;4.50;;;4.15;;
4634;SDS011;2330;48.158;11.816;2023-04-03T06:50:35;4.40;;;4.03;;
4634;SDS011;2330;48.158;11.816;2023-04-03T06:53:02;4.47;;;4.18;;
4634;SDS011;2330;48.158;11.816;2023-04-03T06:55:29;4.03;;;3.78;;
4634;SDS011;2330;48.158;11.816;2023-04-03T06:57:56;3.80;;;3.60;;
4634;SDS011;2330;48.158;11.816;2023-04-03T07:00:23;3.75;;;3.45;;
4634;SDS011;2330;48.158;11.816;2023-04-03T07:02:51;4.18;;;3.88;;
4634;SDS011;2330;48.158;11.816;2023-04-03T07:05:18;4.15;;;3.95;;
4634;SDS011;2330;48.158;11.816;2023-04-03T07:07:44;4.65;;;4.20;;
4634;SDS011;2330;48.158;11.816;2023-04-03T07:10:11;3.80;;;3.53;;
4634;SDS011;2330;48.158;11.816;2023-04-03T07:12:38;3.90;;;3.60;;
4634;SDS011;2330;48.158;11.816;2023-04-03T07:15:05;3.95;;;3.75;;
4634;SDS011;2330;48.158;11.816;2023-04-03T07:17:33;4.28;;;3.85;;
4634;SDS011;2330;48.158;11.816;2023-04-03T07:19:59;5.15;;;4.70;;
4634;SDS011;2330;48.158;11.816;2023-04-03T07:22:26;3.97;;;3.67;;
4634;SDS011;2330;48.158;11.816;2023-04-03T07:24:53;4.80;;;4.50;;
4634;SDS011;2330;48.158;11.816;2023-04-03T07:27:19;6.97;;;6.57;;
4634;SDS011;2330;48.158;11.816;2023-04-03T07:29:46;4.30;;;4.00;;
4634;SDS011;2330;48.158;11.816;2023-04-03T07:32:14;4.00;;;3.70;;
4634;SDS011;2330;48.158;11.816;2023-04-03T07:34:41;4.00;;;3.70;;
4634;SDS011;2330;48.158;11.816;2023-04-03T07:37:08;4.63;;;4.18;;
4634;SDS011;2330;48.158;11.816;2023-04-03T07:39:35;4.38;;;4.07;;
4634;SDS011;2330;48.158;11.816;2023-04-03T07:42:02;3.88;;;3.63;;
4634;SDS011;2330;48.158;11.816;2023-04-03T07:44:28;4.30;;;4.00;;
4634;SDS011;2330;48.158;11.816;2023-04-03T07:46:56;3.60;;;3.40;;
4634;SDS011;2330;48.158;11.816;2023-04-03T07:49:22;4.00;;;3.60;;
4634;SDS011;2330;48.158;11.816;2023-04-03T07:51:50;4.32;;;4.03;;
4634;SDS011;2330;48.158;11.816;2023-04-03T07:54:17;4.70;;;4.30;;
4634;SDS011;2330;48.158;11.816;2023-04-03T07:56:44;4.45;;;4.15;;
4634;SDS011;2330;48.158;11.816;2023-04-03T07:59:11;4.22;;;3.92;;
4634;SDS011;2330;48.158;11.816;2023-04-03T08:01:37;4.35;;;4.05;;
4634;SDS011;2330;48.158;11.816;2023-04-03T08:04:04;4.18;;;3.88;;
4634;SDS011;2330;48.158;11.816;2023-04-03T08:06:32;4.82;;;4.13;;
4634;SDS011;2330;48.158;11.816;2023-04-03T08:09:12;4.60;;;4.30;;
4634;SDS011;2330;48.158;11.816;2023-04-03T08:11:40;4.30;;;4.00;;
4634;SDS011;2330;48.158;11.816;2023-04-03T08:14:07;4.22;;;3.90;;
4634;SDS011;2330;48.158;11.816;2023-04-03T08:16:34;4.55;;;4.10;;
4634;SDS011;2330;48.158;11.816;2023-04-03T08:19:01;4.35;;;4.05;;
4634;SDS011;2330;48.158;11.816;2023-04-03T08:21:30;4.60;;;4.20;;
4634;SDS011;2330;48.158;11.816;2023-04-03T08:23:57;4.32;;;3.90;;
4634;SDS011;2330;48.158;11.816;2023-04-03T08:26:23;4.30;;;3.95;;
4634;SDS011;2330;48.158;11.816;2023-04-03T08:28:52;3.85;;;3.50;;
4634;SDS011;2330;48.158;11.816;2023-04-03T08:31:19;5.10;;;4.25;;
4634;SDS011;2330;48.158;11.816;2023-04-03T08:33:47;4.25;;;3.80;;
4634;SDS011;2330;48.158;11.816;2023-04-03T08:36:22;4.50;;;4.20;;
4634;SDS011;2330;48.158;11.816;2023-04-03T08:38:54;4.00;;;3.70;;
4634;SDS011;2330;48.158;11.816;2023-04-03T08:49:25;3.63;;;3.42;;
4634;SDS011;2330;48.158;11.816;2023-04-03T08:51:55;4.50;;;3.85;;
4634;SDS011;2330;48.158;11.816;2023-04-03T08:54:33;4.22;;;3.92;;
4634;SDS011;2330;48.158;11.816;2023-04-03T08:57:07;4.10;;;3.80;;
4634;SDS011;2330;48.158;11.816;2023-04-03T08:59:36;4.10;;;3.33;;
4634;SDS011;2330;48.158;11.816;2023-04-03T09:02:23;4.28;;;3.92;;
4634;SDS011;2330;48.158;11.816;2023-04-03T09:04:57;3.90;;;3.60;;
4634;SDS011;2330;48.158;11.816;2023-04-03T09:07:32;3.47;;;3.10;;
4634;SDS011;2330;48.158;11.816;2023-04-03T09:10:04;3.30;;;3.10;;
4634;SDS011;2330;48.158;11.816;2023-04-03T09:12:34;3.57;;;3.27;;
4634;SDS011;2330;48.158;11.816;2023-04-03T09:18:12;4.90;;;4.50;;
4634;SDS011;2330;48.158;11.816;2023-04-03T09:20:58;3.87;;;3.57;;
4634;SDS011;2330;48.158;11.816;2023-04-03T09:23:39;4.57;;;4.28;;
4634;SDS011;2330;48.158;11.816;2023-04-03T09:29:13;4.93;;;4.63;;
4634;SDS011;2330;48.158;11.816;2023-04-03T09:31:44;4.30;;;3.70;;
4634;SDS011;2330;48.158;11.816;2023-04-03T09:36:50;3.77;;;3.47;;
4634;SDS011;2330;48.158;11.816;2023-04-03T09:39:19;3.33;;;3.00;;
4634;SDS011;2330;48.158;11.816;2023-04-03T09:41:58;3.30;;;3.10;;
4634;SDS011;2330;48.158;11.816;2023-04-03T09:44:26;3.75;;;3.38;;
4634;SDS011;2330;48.158;11.816;2023-04-03T09:47:23;3.20;;;3.00;;
4634;SDS011;2330;48.158;11.816;2023-04-03T09:49:50;3.40;;;3.10;;
4634;SDS011;2330;48.158;11.816;2023-04-03T09:52:35;3.37;;;3.17;;
4634;SDS011;2330;48.158;11.816;2023-04-03T09:55:08;4.17;;;3.10;;
4634;SDS011;2330;48.158;11.816;2023-04-03T09:57:47;3.85;;;3.35;;
4634;SDS011;2330;48.158;11.816;2023-04-03T10:00:23;3.77;;;3.47;;
4634;SDS011;2330;48.158;11.816;2023-04-03T10:02:56;3.65;;;3.45;;
4634;SDS011;2330;48.158;11.816;2023-04-03T10:08:34;3.10;;;2.90;;
4634;SDS011;2330;48.158;11.816;2023-04-03T10:13:57;2.70;;;2.50;;
4634;SDS011;2330;48.158;11.816;2023-04-03T10:16:35;3.10;;;2.90;;
4634;SDS011;2330;48.158;11.816;2023-04-03T10:22:00;3.80;;;3.50;;
4634;SDS011;2330;48.158;11.816;2023-04-03T10:32:59;3.03;;;2.83;;
4634;SDS011;2330;48.158;11.816;2023-04-03T10:44:50;3.63;;;2.65;;
4634;SDS011;2330;48.158;11.816;2023-04-03T10:47:41;2.92;;;2.65;;
4634;SDS011;2330;48.158;11.816;2023-04-03T10:53:42;3.10;;;2.80;;
4634;SDS011;2330;48.158;11.816;2023-04-03T10:56:24;3.00;;;2.70;;
4634;SDS011;2330;48.158;11.816;2023-04-03T10:58:54;3.60;;;2.90;;
4634;SDS011;2330;48.158;11.816;2023-04-03T11:01:26;2.72;;;2.53;;
4634;SDS011;2330;48.158;11.816;2023-04-03T11:03:59;3.10;;;2.80;;
4634;SDS011;2330;48.158;11.816;2023-04-03T11:06:31;4.10;;;2.58;;
4634;SDS011;2330;48.158;11.816;2023-04-03T11:09:19;3.13;;;2.80;;
4634;SDS011;2330;48.158;11.816;2023-04-03T11:11:51;2.42;;;2.30;;
4634;SDS011;2330;48.158;11.816;2023-04-03T11:14:34;2.33;;;2.20;;
4634;SDS011;2330;48.158;11.816;2023-04-03T11:19:45;2.33;;;2.20;;
4634;SDS011;2330;48.158;11.816;2023-04-03T11:22:29;3.88;;;2.38;;
4634;SDS011;2330;48.158;11.816;2023-04-03T11:25:02;2.42;;;2.22;;
4634;SDS011;2330;48.158;11.816;2023-04-03T11:36:18;2.45;;;2.25;;
4634;SDS011;2330;48.158;11.816;2023-04-03T11:39:02;2.25;;;2.05;;
4634;SDS011;2330;48.158;11.816;2023-04-03T11:41:42;1.83;;;1.73;;
4634;SDS011;2330;48.158;11.816;2023-04-03T11:44:52;2.10;;;1.88;;
4634;SDS011;2330;48.158;11.816;2023-04-03T11:47:04;2.20;;;2.00;;
4634;SDS011;2330;48.158;11.816;2023-04-03T11:52:57;2.30;;;2.10;;
4634;SDS011;2330;48.158;11.816;2023-04-03T11:55:41;3.53;;;2.13;;
4634;SDS011;2330;48.158;11.816;2023-04-03T11:58:19;2.23;;;1.83;;
4634;SDS011;2330;48.158;11.816;2023-04-03T12:01:07;2.00;;;1.90;;
4634;SDS011;2330;48.158;11.816;2023-04-03T12:04:05;2.17;;;1.90;;
4634;SDS011;2330;48.158;11.816;2023-04-03T12:09:04;1.60;;;1.50;;
4634;SDS011;2330;48.158;11.816;2023-04-03T12:11:49;2.40;;;2.20;;
4634;SDS011;2330;48.158;11.816;2023-04-03T12:14:18;3.13;;;2.30;;
4634;SDS011;2330;48.158;11.816;2023-04-03T12:16:50;2.20;;;2.00;;
4634;SDS011;2330;48.158;11.816;2023-04-03T12:24:24;1.60;;;1.27;;
4634;SDS011;2330;48.158;11.816;2023-04-03T12:46:14;1.80;;;1.70;;
4634;SDS011;2330;48.158;11.816;2023-04-03T12:51:15;1.63;;;1.53;;
4634;SDS011;2330;48.158;11.816;2023-04-03T12:53:46;1.70;;;1.60;;
4634;SDS011;2330;48.158;11.816;2023-04-03T12:56:21;9.03;;;2.30;;
4634;SDS011;2330;48.158;11.816;2023-04-03T12:59:19;2.20;;;2.00;;
4634;SDS011;2330;48.158;11.816;2023-04-03T13:01:58;2.77;;;1.80;;
4634;SDS011;2330;48.158;11.816;2023-04-03T13:04:30;1.97;;;1.87;;
4634;SDS011;2330;48.158;11.816;2023-04-03T13:06:58;2.00;;;1.63;;
4634;SDS011;2330;48.158;11.816;2023-04-03T13:09:26;1.70;;;1.60;;
4634;SDS011;2330;48.158;11.816;2023-04-03T13:11:56;1.87;;;1.30;;
4634;SDS011;2330;48.158;11.816;2023-04-03T13:14:27;1.53;;;1.43;;
4634;SDS011;2330;48.158;11.816;2023-04-03T13:16:59;1.40;;;1.30;;
4634;SDS011;2330;48.158;11.816;2023-04-03T13:19:30;1.73;;;1.07;;
4634;SDS011;2330;48.158;11.816;2023-04-03T13:21:59;3.17;;;1.87;;
4634;SDS011;2330;48.158;11.816;2023-04-03T13:24:30;1.50;;;1.33;;
4634;SDS011;2330;48.158;11.816;2023-04-03T13:27:01;4.20;;;2.60;;
4634;SDS011;2330;48.158;11.816;2023-04-03T13:29:29;4.40;;;1.83;;
4634;SDS011;2330;48.158;11.816;2023-04-03T13:31:59;1.93;;;1.60;;
4634;SDS011;2330;48.158;11.816;2023-04-03T13:34:28;2.30;;;1.77;;
4634;SDS011;2330;48.158;11.816;2023-04-03T13:37:02;2.03;;;1.77;;
4634;SDS011;2330;48.158;11.816;2023-04-03T13:39:32;2.07;;;1.87;;
4634;SDS011;2330;48.158;11.816;2023-04-03T13:42:01;1.60;;;1.50;;
4634;SDS011;2330;48.158;11.816;2023-04-03T13:44:42;1.57;;;1.47;;
4634;SDS011;2330;48.158;11.816;2023-04-03T13:47:19;2.40;;;1.80;;
4634;SDS011;2330;48.158;11.816;2023-04-03T13:50:03;2.10;;;1.50;;
4634;SDS011;2330;48.158;11.816;2023-04-03T13:52:59;1.80;;;1.70;;
4634;SDS011;2330;48.158;11.816;2023-04-03T13:55:39;1.93;;;1.83;;
4634;SDS011;2330;48.158;11.816;2023-04-03T13:58:27;2.20;;;1.40;;
4634;SDS011;2330;48.158;11.816;2023-04-03T14:01:17;1.43;;;1.33;;
4634;SDS011;2330;48.158;11.816;2023-04-03T14:03:52;3.27;;;2.03;;
4634;SDS011;2330;48.158;11.816;2023-04-03T14:06:22;1.73;;;1.50;;
4634;SDS011;2330;48.158;11.816;2023-04-03T14:08:50;1.63;;;1.50;;
4634;SDS011;2330;48.158;11.816;2023-04-03T14:11:28;1.30;;;1.20;;
4634;SDS011;2330;48.158;11.816;2023-04-03T14:14:09;2.30;;;1.50;;
4634;SDS011;2330;48.158;11.816;2023-04-03T14:16:45;1.67;;;1.57;;
4634;SDS011;2330;48.158;11.816;2023-04-03T14:19:16;3.33;;;1.50;;
4634;SDS011;2330;48.158;11.816;2023-04-03T14:21:46;1.50;;;1.40;;
4634;SDS011;2330;48.158;11.816;2023-04-03T14:24:12;1.73;;;1.63;;
4634;SDS011;2330;48.158;11.816;2023-04-03T14:26:39;1.53;;;1.43;;
4634;SDS011;2330;48.158;11.816;2023-04-03T14:29:09;1.80;;;1.27;;
4634;SDS011;2330;48.158;11.816;2023-04-03T14:31:36;3.30;;;1.67;;
4634;SDS011;2330;48.158;11.816;2023-04-03T14:34:03;2.13;;;1.70;;
4634;SDS011;2330;48.158;11.816;2023-04-03T14:36:31;2.00;;;1.43;;
4634;SDS011;2330;48.158;11.816;2023-04-03T14:38:59;1.17;;;1.10;;
4634;SDS011;2330;48.158;11.816;2023-04-03T14:41:27;1.50;;;1.40;;
4634;SDS011;2330;48.158;11.816;2023-04-03T14:43:54;1.47;;;1.37;;
4634;SDS011;2330;48.158;11.816;2023-04-03T14:46:24;1.20;;;1.10;;
4634;SDS011;2330;48.158;11.816;2023-04-03T14:49:18;1.37;;;1.27;;
4634;SDS011;2330;48.158;11.816;2023-04-03T14:51:46;1.63;;;1.20;;
4634;SDS011;2330;48.158;11.816;2023-04-03T14:54:14;1.27;;;1.10;;
4634;SDS011;2330;48.158;11.816;2023-04-03T14:56:43;2.23;;;1.50;;
4634;SDS011;2330;48.158;11.816;2023-04-03T14:59:12;2.60;;;1.40;;
4634;SDS011;2330;48.158;11.816;2023-04-03T15:01:40;1.00;;;1.00;;
4634;SDS011;2330;48.158;11.816;2023-04-03T15:04:11;1.53;;;1.40;;
4634;SDS011;2330;48.158;11.816;2023-04-03T15:06:43;2.03;;;1.20;;
4634;SDS011;2330;48.158;11.816;2023-04-03T15:09:20;2.13;;;1.33;;
4634;SDS011;2330;48.158;11.816;2023-04-03T15:11:50;1.30;;;1.20;;
4634;SDS011;2330;48.158;11.816;2023-04-03T15:14:17;1.63;;;1.17;;
4634;SDS011;2330;48.158;11.816;2023-04-03T15:17:02;1.33;;;1.23;;
4634;SDS011;2330;48.158;11.816;2023-04-03T15:19:35;2.60;;;1.20;;
4634;SDS011;2330;48.158;11.816;2023-04-03T15:22:03;1.83;;;1.73;;
4634;SDS011;2330;48.158;11.816;2023-04-03T15:24:31;2.40;;;2.17;;
4634;SDS011;2330;48.158;11.816;2023-04-03T15:26:58;2.30;;;2.10;;
4634;SDS011;2330;48.158;11.816;2023-04-03T15:29:26;1.77;;;1.63;;
4634;SDS011;2330;48.158;11.816;2023-04-03T15:31:53;1.67;;;1.57;;
4634;SDS011;2330;48.158;11.816;2023-04-03T15:34:20;1.87;;;1.60;;
4634;SDS011;2330;48.158;11.816;2023-04-03T15:36:48;2.23;;;2.10;;
4634;SDS011;2330;48.158;11.816;2023-04-03T15:39:19;1.57;;;1.40;;
4634;SDS011;2330;48.158;11.816;2023-04-03T15:41:47;2.70;;;1.50;;
4634;SDS011;2330;48.158;11.816;2023-04-03T15:44:13;1.80;;;1.67;;
4634;SDS011;2330;48.158;11.816;2023-04-03T15:46:44;1.60;;;1.50;;
4634;SDS011;2330;48.158;11.816;2023-04-03T15:49:12;1.40;;;1.30;;
4634;SDS011;2330;48.158;11.816;2023-04-03T15:51:39;1.40;;;1.03;;
4634;SDS011;2330;48.158;11.816;2023-04-03T15:54:06;1.73;;;1.33;;
4634;SDS011;2330;48.158;11.816;2023-04-03T15:56:32;1.90;;;1.57;;
4634;SDS011;2330;48.158;11.816;2023-04-03T15:58:59;1.87;;;1.63;;
4634;SDS011;2330;48.158;11.816;2023-04-03T16:01:26;2.00;;;1.90;;
4634;SDS011;2330;48.158;11.816;2023-04-03T16:03:53;2.10;;;1.90;;
4634;SDS011;2330;48.158;11.816;2023-04-03T16:06:20;2.03;;;1.50;;
4634;SDS011;2330;48.158;11.816;2023-04-03T16:08:47;1.27;;;1.17;;
4634;SDS011;2330;48.158;11.816;2023-04-03T16:11:15;1.30;;;1.20;;
4634;SDS011;2330;48.158;11.816;2023-04-03T16:13:42;1.43;;;1.33;;
4634;SDS011;2330;48.158;11.816;2023-04-03T16:16:09;5.27;;;1.90;;
4634;SDS011;2330;48.158;11.816;2023-04-03T16:18:36;2.50;;;1.20;;
4634;SDS011;2330;48.158;11.816;2023-04-03T16:21:03;1.33;;;1.20;;
4634;SDS011;2330;48.158;11.816;2023-04-03T16:23:31;1.97;;;1.40;;
4634;SDS011;2330;48.158;11.816;2023-04-03T16:25:58;2.70;;;1.37;;
4634;SDS011;2330;48.158;11.816;2023-04-03T16:28:25;5.03;;;1.60;;
4634;SDS011;2330;48.158;11.816;2023-04-03T16:30:52;1.50;;;1.30;;
4634;SDS011;2330;48.158;11.816;2023-04-03T16:33:18;3.90;;;3.33;;
4634;SDS011;2330;48.158;11.816;2023-04-03T16:35:48;1.93;;;1.73;;
4634;SDS011;2330;48.158;11.816;2023-04-03T16:38:16;2.57;;;2.30;;
4634;SDS011;2330;48.158;11.816;2023-04-03T16:40:45;1.77;;;1.30;;
4634;SDS011;2330;48.158;11.816;2023-04-03T16:43:12;1.63;;;1.50;;
4634;SDS011;2330;48.158;11.816;2023-04-03T16:45:39;1.80;;;1.63;;
4634;SDS011;2330;48.158;11.816;2023-04-03T16:48:06;1.97;;;1.77;;
4634;SDS011;2330;48.158;11.816;2023-04-03T16:50:33;1.55;;;1.45;;
4634;SDS011;2330;48.158;11.816;2023-04-03T16:53:00;2.10;;;1.90;;